Bookmark and Share
Track history (hours):
 

Maersk Damietta

Last reported at 2014-Apr-14 13:34 UTC. Time now 2014-Apr-21 04:33 UTC.
Position N 35°58' W 005°34'.

Length 293 m; draft 12.4 m.

Type: Ship (hazmat cat B). MMSI: 636091506.

NotesDate/timePositionNaut miles runAvg speedWind from/ knotsBaromVisibWave heightAir tempDewpointWater temp
2014-Apr-14 13:34N 35°58' W 005°34'12 6.2
2014-Apr-14 11:32N 36°08' W 005°26'0 0.0
2014-Apr-14 10:31N 36°08' W 005°26'0 0.0
2014-Apr-14 09:33N 36°08' W 005°26'0 0.0
2014-Apr-14 08:32N 36°08' W 005°26'0 0.0
2014-Apr-14 06:32N 36°08' W 005°26'0 0.0
2014-Apr-14 05:31N 36°08' W 005°26'0 0.0
2014-Apr-13 22:33N 36°08' W 005°26'0 0.1
2014-Apr-13 21:33N 36°08' W 005°26'0 0.0
2014-Apr-13 20:33N 36°08' W 005°26'0 0.1
2014-Apr-13 19:33N 36°08' W 005°26'0 0.0
2014-Apr-13 18:29N 36°08' W 005°26'3 2.9
2014-Apr-13 17:33N 36°07' W 005°23'5 5.5
2014-Apr-13 16:33N 36°05' W 005°17'4 3.6
2014-Apr-13 15:33N 36°05' W 005°12'45118.7
2014-Apr-12 15:30N 37°16' E 004°02'1818.7
2014-Apr-12 14:31N 37°19' E 004°25'1818.9
2014-Apr-12 13:33N 37°22' E 004°48'1919.0
2014-Apr-12 12:33N 37°26' E 005°11'1818.4
2014-Apr-12 11:33N 37°29' E 005°34'2019.8
2014-Apr-12 10:33N 37°32' E 005°59'5819.2
2014-Apr-12 07:32N 37°41' E 007°11'1919.7
2014-Apr-12 06:33N 37°41' E 007°35'2518.7
2014-Apr-12 05:14N 37°42' E 008°07'1319.4
2014-Apr-12 04:32N 37°42' E 008°24'1919.2
2014-Apr-12 03:34N 37°43' E 008°47'1918.7
2014-Apr-12 02:34N 37°42' E 009°11'1918.9
2014-Apr-12 01:33N 37°40' E 009°35'1918.8
2014-Apr-12 00:34N 37°39' E 009°58'1918.8
2014-Apr-11 23:33N 37°38' E 010°22'1918.9
2014-Apr-11 22:33N 37°33' E 010°45'1918.7
2014-Apr-11 21:33N 37°28' E 011°08'9818.9
2014-Apr-11 16:22N 36°41' E 012°56'1619.2
2014-Apr-11 15:33N 36°36' E 013°14'5819.0
2014-Apr-11 12:29N 36°18' E 014°23'  
2014-Apr-08 13:22N 31°12' E 032°21'5 6.6
2014-Apr-08 12:33N 31°07' E 032°19'  

Dump ship's entire track history

sailing weather and tide predictions

Maersk Damietta — A8OU4 — position and weather